East Orange, Vermont
Current Conditions -  °F | °C
As of 3:51 AM on Wednesday 22 Oct 2014 (Local Time) from KMPV Reporting Station
Overcast Overcast  
Wind Chill: 43°   Ceiling: 1700
Heat Index: 45°   Visibility: 10mi
Dew Point: 44°   Wind: 5mph
Humidity: 97%   Direction: 350°N
Pressure: 30.12"   Gusts: NA
Location:  44.1344°N, 72.2538°W
Report Text: KMPV 220751Z AUTO 35004KT 10SM OVC017 07/07 A3012 RMK AO2 SLP206 T00720067
Loading
Personal Weather Stations






























Interactive Weather Map New forecast layout! Learn more

10-Day Weather Forecast

Advertisements
Track Severe Weather on mobile